Time;durP1;ratioP1;P1;durP2;ratioP2;P2;SDS_P1;SDS_P2;PMS_P1;PMS_P2;Temp;Humidity;BMP_temperature;BMP_pressure;BME280_temperature;BME280_humidity;BME280_pressure;Samples;Min_cycle;Max_cycle;Signal;HPM_P1;HPM_P2
2023/05/04 00:01:04;;;;;;;;;;;;;;;11.43;81.62;101625.00;7360629;19;19935;-66
2023/05/04 00:03:31;;;;;;;;;;;;;;;11.45;81.97;101626.53;7355388;19;19943;-66
2023/05/04 00:05:58;;;;;;;;;;;;;;;11.44;81.61;101624.88;7352981;19;19941;-65
2023/05/04 00:08:24;;;;;;;;;;;;;;;11.42;82.58;101621.56;7356113;19;19918;-65
2023/05/04 00:10:53;;;;;;;;;;;;;;;11.40;82.12;101620.84;7360961;19;19919;-66
2023/05/04 00:13:20;;;;;;;;;;;;;;;11.39;82.17;101615.72;7355944;19;19936;-67
2023/05/04 00:15:47;;;;;;;;;;;;;;;11.36;82.11;101616.84;7357866;19;19923;-66
2023/05/04 00:18:14;;;;;;;;;;;;;;;11.26;82.58;101616.00;7360352;19;20353;-66
2023/05/04 00:20:41;;;;;;;;;;;;;;;11.24;82.89;101601.28;7359136;19;19919;-66
2023/05/04 00:23:07;;;;;;;;;;;;;;;11.21;82.87;101594.50;7361157;19;19943;-66
2023/05/04 00:25:34;;;;;;;;;;;;;;;11.13;83.71;101594.34;7361768;19;19978;-65
2023/05/04 00:28:01;;;;;;;;;;;;;;;11.05;83.85;101588.94;7359546;19;19928;-65
2023/05/04 00:30:28;;;;;;;;;;;;;;;11.02;84.26;101597.94;7360543;19;19955;-65
2023/05/04 00:32:55;;;;;;;;;;;;;;;11.00;84.46;101593.78;7361209;19;19925;-65
2023/05/04 00:35:22;;;;;;;;;;;;;;;10.97;84.84;101586.19;7362192;19;19986;-65
2023/05/04 00:37:48;;;;;;;;;;;;;;;10.94;85.66;101584.63;7361605;19;19926;-64
2023/05/04 00:40:15;;;;;;;;;;;;;;;10.98;85.55;101587.81;7358541;19;20292;-64
2023/05/04 00:42:42;;;;;;;;;;;;;;;11.00;85.43;101583.25;7359954;19;19970;-64
2023/05/04 00:45:09;;;;;;;;;;;;;;;11.02;84.81;101566.34;7360530;19;20304;-65
2023/05/04 00:47:36;;;;;;;;;;;;;;;10.98;85.13;101569.38;7361536;19;20729;-65
2023/05/04 00:50:03;;;;;;;;;;;;;;;10.95;85.24;101565.25;7356269;19;19915;-64
2023/05/04 00:52:31;;;;;;;;;;;;;;;10.92;85.71;101557.59;7359324;19;19919;-64
2023/05/04 00:54:59;;;;;;;;;;;;;;;10.88;86.18;101564.13;7360339;19;19951;-65
2023/05/04 00:57:26;;;;;;;;;;;;;;;10.87;86.16;101549.28;7358564;19;20179;-65
2023/05/04 00:59:53;;;;;;;;;;;;;;;10.87;86.17;101551.09;7356164;19;20552;-65
2023/05/04 01:02:20;;;;;;;;;;;;;;;10.87;86.38;101545.84;7360910;19;19919;-65
2023/05/04 01:04:51;;;;;;;;;;;;;;;10.86;86.60;101542.38;7358480;19;21905;-65
2023/05/04 01:07:25;;;;;;;;;;;;;;;10.87;86.38;101544.00;7363665;19;19923;-68
2023/05/04 01:09:57;;;;;;;;;;;;;;;10.88;86.37;101535.16;7363018;19;20594;-65
2023/05/04 01:12:28;;;;;;;;;;;;;;;10.87;86.54;101541.38;7364156;19;19925;-65
2023/05/04 01:14:55;;;;;;;;;;;;;;;10.84;86.80;101532.94;7359030;19;19966;-66
2023/05/04 01:17:22;;;;;;;;;;;;;;;10.84;86.62;101523.25;7359043;19;19911;-65
2023/05/04 01:19:52;;;;;;;;;;;;;;;10.82;87.32;101519.09;7359501;19;19922;-66
2023/05/04 01:22:20;;;;;;;;;;;;;;;10.82;87.14;101519.91;7361004;19;19918;-66
2023/05/04 01:24:47;;;;;;;;;;;;;;;10.83;87.10;101512.84;7361114;19;20560;-66
2023/05/04 01:27:22;;;;;;;;;;;;;;;10.80;87.65;101511.31;7360711;19;19923;-65
2023/05/04 01:29:52;;;;;;;;;;;;;;;10.81;87.48;101513.00;7354719;19;20444;-65
2023/05/04 01:32:20;;;;;;;;;;;;;;;10.77;88.02;101503.69;7359702;19;19930;-65
2023/05/04 01:34:47;;;;;;;;;;;;;;;10.79;87.89;101504.41;7361099;19;20357;-64
2023/05/04 01:37:14;;;;;;;;;;;;;;;10.81;87.91;101502.47;7359081;19;20605;-68
2023/05/04 01:39:41;;;;;;;;;;;;;;;10.82;87.89;101501.47;7360999;19;19923;-64
2023/05/04 01:42:08;;;;;;;;;;;;;;;10.84;88.25;101489.00;7360296;19;19994;-65
2023/05/04 01:44:35;;;;;;;;;;;;;;;10.83;88.47;101492.63;7358058;19;19919;-66
2023/05/04 01:47:02;;;;;;;;;;;;;;;10.86;87.82;101491.53;7359869;19;19922;-65
2023/05/04 01:49:29;;;;;;;;;;;;;;;10.88;88.08;101485.13;7359160;19;20479;-65
2023/05/04 01:51:56;;;;;;;;;;;;;;;10.89;88.09;101483.34;7360098;19;20257;-66
2023/05/04 01:54:23;;;;;;;;;;;;;;;10.92;88.00;101483.88;7357912;19;19922;-65
2023/05/04 01:56:49;;;;;;;;;;;;;;;10.95;88.09;101485.41;7358930;19;19930;-66
2023/05/04 01:59:19;;;;;;;;;;;;;;;10.92;88.34;101481.25;7357272;19;20383;-66
2023/05/04 02:01:46;;;;;;;;;;;;;;;10.94;88.51;101475.84;7356616;19;19919;-65
2023/05/04 02:04:13;;;;;;;;;;;;;;;10.94;88.04;101484.59;7358086;19;19919;-65
2023/05/04 02:06:40;;;;;;;;;;;;;;;10.96;87.93;101477.38;7359698;19;19927;-66
2023/05/04 02:09:07;;;;;;;;;;;;;;;10.94;87.81;101473.22;7357175;19;19919;-65
2023/05/04 02:11:34;;;;;;;;;;;;;;;10.92;88.03;101470.72;7360116;19;19919;-66
2023/05/04 02:14:01;;;;;;;;;;;;;;;10.92;88.01;101475.19;7360107;19;20116;-65
2023/05/04 02:16:28;;;;;;;;;;;;;;;10.91;88.33;101463.81;7356372;19;19930;-65
2023/05/04 02:18:55;;;;;;;;;;;;;;;10.92;88.48;101459.38;7357004;19;20367;-66
2023/05/04 02:21:22;;;;;;;;;;;;;;;10.92;88.70;101454.91;7356437;19;19923;-64
2023/05/04 02:23:49;;;;;;;;;;;;;;;10.91;88.70;101455.91;7359621;19;20539;-64
2023/05/04 02:26:16;;;;;;;;;;;;;;;10.96;88.02;101460.75;7358765;19;19945;-64
2023/05/04 02:28:42;;;;;;;;;;;;;;;10.94;88.16;101454.78;7358848;19;19915;-64
2023/05/04 02:31:09;;;;;;;;;;;;;;;10.90;88.56;101459.50;7354580;19;19917;-64
2023/05/04 02:33:36;;;;;;;;;;;;;;;10.93;88.51;101455.75;7357695;19;20016;-64
2023/05/04 02:36:03;;;;;;;;;;;;;;;10.91;88.67;101450.66;7361859;19;20015;-64
2023/05/04 02:38:30;;;;;;;;;;;;;;;10.91;88.72;101455.06;7357906;19;20540;-65
2023/05/04 02:40:57;;;;;;;;;;;;;;;10.93;89.36;101443.44;7356304;19;20037;-64
2023/05/04 02:43:24;;;;;;;;;;;;;;;10.94;88.97;101450.34;7355986;19;20233;-64
2023/05/04 02:45:51;;;;;;;;;;;;;;;10.90;88.79;101435.81;7358136;19;19918;-65
2023/05/04 02:48:18;;;;;;;;;;;;;;;10.86;89.30;101425.72;7359524;19;20316;-65
2023/05/04 02:50:45;;;;;;;;;;;;;;;10.90;89.44;101420.03;7358721;19;19922;-65
2023/05/04 02:53:12;;;;;;;;;;;;;;;10.90;88.70;101412.13;7357320;19;19918;-64
2023/05/04 02:55:39;;;;;;;;;;;;;;;10.92;89.02;101417.25;7356285;19;20335;-67
2023/05/04 02:58:06;;;;;;;;;;;;;;;10.87;88.99;101415.03;7357986;19;19923;-65
2023/05/04 03:00:33;;;;;;;;;;;;;;;10.89;89.48;101410.44;7355297;19;20309;-65
2023/05/04 03:03:00;;;;;;;;;;;;;;;10.89;89.64;101412.25;7356640;19;20250;-66
2023/05/04 03:05:27;;;;;;;;;;;;;;;10.87;89.66;101422.13;7357135;19;20003;-66
2023/05/04 03:07:55;;;;;;;;;;;;;;;10.88;89.91;101416.69;7357897;19;21086;-66
2023/05/04 03:10:22;;;;;;;;;;;;;;;10.93;90.64;101411.00;7358307;19;20014;-66
2023/05/04 03:12:49;;;;;;;;;;;;;;;10.98;89.01;101406.13;7361293;19;19919;-66
2023/05/04 03:15:16;;;;;;;;;;;;;;;10.96;89.07;101398.41;7363782;19;19918;-64
2023/05/04 03:17:43;;;;;;;;;;;;;;;10.95;88.99;101407.25;7364625;19;20551;-65
2023/05/04 03:20:11;;;;;;;;;;;;;;;10.93;88.82;101396.03;7362292;19;19923;-65
2023/05/04 03:22:38;;;;;;;;;;;;;;;10.93;88.98;101388.13;7364901;19;19921;-67
2023/05/04 03:25:06;;;;;;;;;;;;;;;10.94;89.10;101394.22;7363207;19;19940;-66
2023/05/04 03:27:33;;;;;;;;;;;;;;;10.94;89.62;101392.44;7364669;19;19918;-66
2023/05/04 03:30:00;;;;;;;;;;;;;;;10.96;88.86;101387.03;7362198;19;20313;-66
2023/05/04 03:32:27;;;;;;;;;;;;;;;10.95;88.94;101385.38;7363707;19;19947;-65
2023/05/04 03:34:54;;;;;;;;;;;;;;;10.96;89.28;101389.66;7365302;19;19978;-66
2023/05/04 03:37:20;;;;;;;;;;;;;;;10.93;89.08;101384.66;7363144;19;19939;-64
2023/05/04 03:39:47;;;;;;;;;;;;;;;10.94;89.41;101386.34;7361277;19;19923;-65
2023/05/04 03:42:14;;;;;;;;;;;;;;;10.91;89.41;101379.56;7363097;19;20515;-65
2023/05/04 03:44:41;;;;;;;;;;;;;;;10.93;89.24;101377.59;7362186;19;19918;-65
2023/05/04 03:47:08;;;;;;;;;;;;;;;10.89;89.51;101370.13;7361635;19;19935;-66
2023/05/04 03:49:34;;;;;;;;;;;;;;;10.84;89.56;101362.66;7363877;19;19937;-65
2023/05/04 03:52:01;;;;;;;;;;;;;;;10.85;89.82;101363.50;7366830;19;19915;-64
2023/05/04 03:54:28;;;;;;;;;;;;;;;10.85;89.88;101359.06;7363472;19;19923;-66
2023/05/04 03:56:55;;;;;;;;;;;;;;;10.85;90.03;101352.97;7366208;19;19939;-64
2023/05/04 03:59:22;;;;;;;;;;;;;;;10.83;89.64;101352.25;7359144;19;19915;-65
2023/05/04 04:01:49;;;;;;;;;;;;;;;10.84;90.00;101346.88;7360815;19;19923;-64
2023/05/04 04:04:16;;;;;;;;;;;;;;;10.84;90.03;101343.41;7363532;19;19915;-66
2023/05/04 04:06:43;;;;;;;;;;;;;;;10.86;90.22;101338.84;7359880;19;19939;-65
2023/05/04 04:09:10;;;;;;;;;;;;;;;10.81;89.96;101336.63;7362495;19;20010;-66
2023/05/04 04:11:37;;;;;;;;;;;;;;;10.80;90.15;101334.97;7358534;19;19926;-65
2023/05/04 04:14:04;;;;;;;;;;;;;;;10.80;90.24;101331.50;7363012;19;19943;-65
2023/05/04 04:16:31;;;;;;;;;;;;;;;10.78;90.40;101329.00;7363492;19;19915;-66
2023/05/04 04:18:58;;;;;;;;;;;;;;;10.80;90.46;101332.34;7362593;19;19926;-67
2023/05/04 04:21:25;;;;;;;;;;;;;;;10.81;90.21;101339.25;7361157;19;20419;-64
2023/05/04 04:23:52;;;;;;;;;;;;;;;10.83;90.31;101332.03;7363520;19;20019;-66
2023/05/04 04:26:19;;;;;;;;;;;;;;;10.85;90.34;101332.75;7363846;19;19922;-65
2023/05/04 04:28:49;;;;;;;;;;;;;;;10.87;90.30;101329.97;7360047;19;19950;-65
2023/05/04 04:31:17;;;;;;;;;;;;;;;10.89;89.83;101320.94;7359582;19;20353;-65
2023/05/04 04:33:46;;;;;;;;;;;;;;;10.88;89.93;101318.44;7364455;19;19923;-65
2023/05/04 04:36:15;;;;;;;;;;;;;;;10.92;89.46;101319.84;7361972;19;20293;-66
2023/05/04 04:38:42;;;;;;;;;;;;;;;10.92;89.59;101319.84;7364132;19;19952;-66
2023/05/04 04:41:09;;;;;;;;;;;;;;;10.94;89.55;101320.50;7361479;19;19915;-65
2023/05/04 04:43:36;;;;;;;;;;;;;;;10.93;89.41;101329.38;7362719;19;19923;-66
2023/05/04 04:46:03;;;;;;;;;;;;;;;10.95;89.87;101328.28;7359844;19;19972;-65
2023/05/04 04:48:30;;;;;;;;;;;;;;;10.93;89.54;101321.47;7361244;19;19944;-66
2023/05/04 04:50:57;;;;;;;;;;;;;;;10.91;89.53;101320.81;7361412;19;19940;-66
2023/05/04 04:53:24;;;;;;;;;;;;;;;10.92;89.91;101318.00;7361843;19;19934;-65
2023/05/04 04:55:52;;;;;;;;;;;;;;;10.96;89.89;101323.84;7358086;19;19919;-65
2023/05/04 04:58:19;;;;;;;;;;;;;;;10.97;90.20;101318.41;7363830;19;20945;-66
2023/05/04 05:00:46;;;;;;;;;;;;;;;10.99;90.37;101318.28;7358605;19;19922;-65
2023/05/04 05:03:13;;;;;;;;;;;;;;;11.04;90.45;101314.25;7361819;19;19929;-65
2023/05/04 05:05:40;;;;;;;;;;;;;;;11.05;90.11;101312.44;7361117;19;19974;-65
2023/05/04 05:08:07;;;;;;;;;;;;;;;11.17;88.86;101305.22;7361425;19;19925;-67
2023/05/04 05:10:37;;;;;;;;;;;;;;;11.22;88.86;101306.44;7358188;19;20459;-67
2023/05/04 05:13:05;;;;;;;;;;;;;;;11.26;88.17;101309.59;7361194;19;19923;-66
2023/05/04 05:15:32;;;;;;;;;;;;;;;11.28;88.25;101312.91;7360086;19;20903;-66
2023/05/04 05:17:59;;;;;;;;;;;;;;;11.26;88.38;101310.44;7360563;19;20478;-65
2023/05/04 05:20:26;;;;;;;;;;;;;;;11.31;88.99;101308.19;7362005;19;20597;-65
2023/05/04 05:22:53;;;;;;;;;;;;;;;11.35;89.00;101311.34;7356396;19;20291;-66
2023/05/04 05:25:20;;;;;;;;;;;;;;;11.39;87.79;101292.47;7361053;19;19929;-66
2023/05/04 05:27:47;;;;;;;;;;;;;;;11.44;87.65;101302.56;7358990;19;20353;-65
2023/05/04 05:30:14;;;;;;;;;;;;;;;11.47;88.06;101292.59;7358361;19;19935;-65
2023/05/04 05:32:40;;;;;;;;;;;;;;;11.54;88.38;101290.16;7361134;19;19915;-66
2023/05/04 05:35:08;;;;;;;;;;;;;;;11.58;87.41;101276.53;7360637;19;20387;-65
2023/05/04 05:37:35;;;;;;;;;;;;;;;11.59;87.85;101285.28;7361265;19;20384;-65
2023/05/04 05:40:04;;;;;;;;;;;;;;;11.66;87.30;101281.09;7360226;19;20952;-66
2023/05/04 05:42:36;;;;;;;;;;;;;;;11.71;86.88;101278.84;7356993;19;20039;-66
2023/05/04 05:45:04;;;;;;;;;;;;;;;11.74;86.70;101281.19;7355964;19;19923;-65
2023/05/04 05:47:30;;;;;;;;;;;;;;;11.80;86.88;101275.34;7358528;19;20343;-66
2023/05/04 05:49:57;;;;;;;;;;;;;;;11.82;86.67;101275.19;7360582;19;20431;-65
2023/05/04 05:52:24;;;;;;;;;;;;;;;11.90;85.98;101264.72;7358973;19;19978;-66
2023/05/04 05:54:51;;;;;;;;;;;;;;;11.98;85.92;101257.72;7355516;19;19937;-65
2023/05/04 05:57:19;;;;;;;;;;;;;;;12.06;85.17;101256.13;7358843;19;19918;-66
2023/05/04 05:59:46;;;;;;;;;;;;;;;12.11;84.79;101249.41;7356364;19;19914;-66
2023/05/04 06:02:13;;;;;;;;;;;;;;;12.14;84.73;101248.28;7357689;19;19927;-66
2023/05/04 06:04:41;;;;;;;;;;;;;;;12.16;84.38;101244.50;7358098;19;20247;-66
2023/05/04 06:07:07;;;;;;;;;;;;;;;12.22;85.05;101238.63;7360761;19;19923;-66
2023/05/04 06:09:35;;;;;;;;;;;;;;;12.29;84.44;101231.72;7359131;19;19926;-67
2023/05/04 06:12:03;;;;;;;;;;;;;;;12.40;84.36;101242.03;7357414;19;20383;-65
2023/05/04 06:14:30;;;;;;;;;;;;;;;12.48;84.04;101233.38;7358233;19;20552;-65
2023/05/04 06:16:57;;;;;;;;;;;;;;;12.59;83.49;101235.75;7356913;19;19956;-65
2023/05/04 06:19:24;;;;;;;;;;;;;;;12.71;82.79;101226.56;7360038;19;19915;-65
2023/05/04 06:21:51;;;;;;;;;;;;;;;12.88;82.88;101224.84;7359431;19;20036;-65
2023/05/04 06:24:20;;;;;;;;;;;;;;;12.99;82.05;101218.47;7311112;19;19919;-66
2023/05/04 06:26:47;;;;;;;;;;;;;;;13.03;81.28;101230.38;7347167;19;19919;-66
2023/05/04 06:29:14;;;;;;;;;;;;;;;13.06;80.83;101222.09;7350170;19;21621;-65
2023/05/04 06:31:41;;;;;;;;;;;;;;;13.15;80.45;101213.28;7354571;19;19953;-66
2023/05/04 06:34:10;;;;;;;;;;;;;;;13.37;79.46;101209.19;7349589;19;19911;-65
2023/05/04 06:36:37;;;;;;;;;;;;;;;13.59;78.50;101209.41;7349180;19;20407;-65
2023/05/04 06:39:04;;;;;;;;;;;;;;;13.69;77.40;101204.81;7351113;19;19927;-66
2023/05/04 06:41:31;;;;;;;;;;;;;;;13.73;77.97;101193.88;7348990;19;19935;-66
2023/05/04 06:43:59;;;;;;;;;;;;;;;13.70;77.33;101187.13;7348081;19;19933;-66
2023/05/04 06:46:26;;;;;;;;;;;;;;;13.71;77.05;101183.50;7349942;19;20007;-67
2023/05/04 06:48:53;;;;;;;;;;;;;;;13.87;77.00;101169.41;7356592;19;20984;-66
2023/05/04 06:51:21;;;;;;;;;;;;;;;14.31;75.13;101177.84;7363960;19;19932;-66
2023/05/04 06:53:48;;;;;;;;;;;;;;;14.53;73.36;101174.47;7360634;19;20347;-66
2023/05/04 06:56:15;;;;;;;;;;;;;;;14.60;72.89;101164.88;7361432;19;19923;-66
2023/05/04 06:58:42;;;;;;;;;;;;;;;14.60;72.69;101164.03;7362321;19;19925;-67
2023/05/04 07:01:10;;;;;;;;;;;;;;;14.53;72.82;101167.38;7360603;19;19914;-66
2023/05/04 07:03:48;;;;;;;;;;;;;;;14.53;73.00;101167.38;7359727;19;19922;-65
2023/05/04 07:06:16;;;;;;;;;;;;;;;14.50;72.84;101166.91;7362902;19;20536;-65
2023/05/04 07:08:43;;;;;;;;;;;;;;;14.54;72.90;101155.78;7365738;19;19918;-67
2023/05/04 07:11:10;;;;;;;;;;;;;;;14.71;71.84;101159.22;7364896;19;19922;-66
2023/05/04 07:13:38;;;;;;;;;;;;;;;14.76;71.36;101148.09;7363441;19;20260;-66
2023/05/04 07:16:06;;;;;;;;;;;;;;;14.85;71.42;101157.66;7362907;19;19994;-66
2023/05/04 07:18:33;;;;;;;;;;;;;;;14.98;72.09;101153.44;7361673;19;19955;-65
2023/05/04 07:21:01;;;;;;;;;;;;;;;15.24;69.85;101139.88;7361488;19;19914;-65
2023/05/04 07:23:48;;;;;;;;;;;;;;;15.35;68.63;101117.44;7364182;19;19923;-65
2023/05/04 07:26:15;;;;;;;;;;;;;;;15.33;68.95;101120.28;7362741;19;20361;-65
2023/05/04 07:28:42;;;;;;;;;;;;;;;15.07;69.36;101118.97;7364643;19;20836;-65
2023/05/04 07:31:11;;;;;;;;;;;;;;;15.04;69.80;101127.25;7357406;19;20352;-66
2023/05/04 07:33:39;;;;;;;;;;;;;;;14.93;70.15;101137.25;7363387;19;20423;-65
2023/05/04 07:36:06;;;;;;;;;;;;;;;14.83;70.77;101141.13;7362367;19;19919;-65
2023/05/04 07:38:34;;;;;;;;;;;;;;;14.75;71.02;101130.56;7357899;19;20610;-65
2023/05/04 07:41:01;;;;;;;;;;;;;;;14.69;71.81;101145.31;7363591;19;20304;-65
2023/05/04 07:43:28;;;;;;;;;;;;;;;14.68;72.17;101142.84;7360078;19;19982;-65
2023/05/04 07:45:55;;;;;;;;;;;;;;;14.63;72.37;101142.53;7358357;19;20367;-66
2023/05/04 07:48:22;;;;;;;;;;;;;;;14.64;72.63;101142.34;7365121;19;20010;-66
2023/05/04 07:50:52;;;;;;;;;;;;;;;14.62;72.66;101146.19;7364867;19;19923;-65
2023/05/04 07:53:20;;;;;;;;;;;;;;;14.65;72.76;101138.72;7365405;19;19915;-65
2023/05/04 07:55:47;;;;;;;;;;;;;;;14.67;72.53;101149.13;7363248;19;19922;-65
2023/05/04 07:58:15;;;;;;;;;;;;;;;14.81;72.49;101159.00;7365075;19;19921;-65
2023/05/04 08:00:45;;;;;;;;;;;;;;;15.11;71.41;101154.72;7361669;19;20860;-66
2023/05/04 08:03:12;;;;;;;;;;;;;;;15.51;70.51;101149.19;7359991;19;19927;-66
2023/05/04 08:05:39;;;;;;;;;;;;;;;15.86;69.01;101131.00;7366074;19;19919;-66
2023/05/04 08:08:07;;;;;;;;;;;;;;;16.16;68.56;101132.69;7361685;19;19926;-66
2023/05/04 08:10:37;;;;;;;;;;;;;;;16.41;66.59;101141.22;7362885;19;19915;-66
2023/05/04 08:13:04;;;;;;;;;;;;;;;16.69;65.87;101134.28;7363594;19;19944;-65
2023/05/04 08:15:31;;;;;;;;;;;;;;;17.01;64.31;101144.53;7360930;19;20232;-66
2023/05/04 08:17:58;;;;;;;;;;;;;;;16.92;63.63;101142.97;7361676;19;20032;-66
2023/05/04 08:20:27;;;;;;;;;;;;;;;16.70;64.10;101141.25;7360561;19;20403;-66
2023/05/04 08:22:55;;;;;;;;;;;;;;;16.49;64.69;101149.94;7360663;19;19998;-65
2023/05/04 08:25:22;;;;;;;;;;;;;;;16.31;65.80;101146.81;7363424;19;20482;-65
2023/05/04 08:27:50;;;;;;;;;;;;;;;16.21;66.12;101149.72;7361423;19;19914;-65
2023/05/04 08:30:17;;;;;;;;;;;;;;;16.14;65.96;101145.34;7359180;19;19925;-66
2023/05/04 08:32:44;;;;;;;;;;;;;;;16.07;65.88;101139.94;7362938;19;19923;-65
2023/05/04 08:35:12;;;;;;;;;;;;;;;16.01;65.87;101142.47;7364601;19;19930;-66
2023/05/04 08:37:39;;;;;;;;;;;;;;;15.99;65.90;101150.63;7361345;19;20004;-65
2023/05/04 08:40:07;;;;;;;;;;;;;;;16.09;65.64;101158.34;7361011;19;19919;-64
2023/05/04 08:42:34;;;;;;;;;;;;;;;16.12;65.63;101152.66;7362526;19;19915;-66
2023/05/04 08:45:01;;;;;;;;;;;;;;;16.22;65.59;101142.59;7357805;19;19923;-65
2023/05/04 08:47:28;;;;;;;;;;;;;;;16.31;64.97;101140.66;7362465;19;19919;-66
2023/05/04 08:49:55;;;;;;;;;;;;;;;16.42;64.79;101134.91;7361710;19;20010;-65
2023/05/04 08:52:24;;;;;;;;;;;;;;;16.46;63.77;101128.22;7357953;19;19987;-66
2023/05/04 08:54:54;;;;;;;;;;;;;;;16.44;63.81;101119.63;7359157;19;19983;-65
2023/05/04 08:57:22;;;;;;;;;;;;;;;16.40;63.82;101097.94;7361229;19;20372;-66
2023/05/04 08:59:54;;;;;;;;;;;;;;;16.42;63.62;101092.41;7358031;19;19919;-66
2023/05/04 09:02:24;;;;;;;;;;;;;;;16.52;63.31;101096.44;7359237;19;19919;-65
2023/05/04 09:04:51;;;;;;;;;;;;;;;16.62;63.45;101090.84;7361968;19;19957;-65
2023/05/04 09:07:19;;;;;;;;;;;;;;;16.74;62.38;101092.03;7359513;19;20009;-65
2023/05/04 09:09:51;;;;;;;;;;;;;;;16.82;62.30;101077.81;7358886;19;21803;-65
2023/05/04 09:12:25;;;;;;;;;;;;;;;16.98;61.76;101072.25;7359901;19;20378;-65
2023/05/04 09:14:52;;;;;;;;;;;;;;;17.10;61.79;101052.97;7355894;19;19995;-65
2023/05/04 09:17:24;;;;;;;;;;;;;;;17.21;60.90;101049.00;7361910;19;19931;-65
2023/05/04 09:19:57;;;;;;;;;;;;;;;17.37;60.57;101053.22;7359881;19;20664;-65
2023/05/04 09:22:26;;;;;;;;;;;;;;;17.41;60.11;101065.94;7358685;19;20351;-65
2023/05/04 09:25:04;;;;;;;;;;;;;;;17.51;60.54;101050.47;7361896;19;19982;-65
2023/05/04 09:27:32;;;;;;;;;;;;;;;17.48;58.91;101048.19;7360986;19;20334;-65
2023/05/04 09:29:59;;;;;;;;;;;;;;;17.45;58.88;101053.91;7359156;19;19929;-66
2023/05/04 09:32:27;;;;;;;;;;;;;;;17.41;59.54;101044.66;7356168;19;19926;-65
2023/05/04 09:34:57;;;;;;;;;;;;;;;17.40;59.60;101029.72;7358384;19;19919;-65
2023/05/04 09:37:24;;;;;;;;;;;;;;;17.47;58.97;101041.22;7361462;19;20376;-66
2023/05/04 09:39:54;;;;;;;;;;;;;;;17.51;58.91;101045.16;7360853;19;19923;-65
2023/05/04 09:42:27;;;;;;;;;;;;;;;17.53;58.98;101032.47;7359305;19;19923;-65
2023/05/04 09:45:02;;;;;;;;;;;;;;;17.63;58.69;101016.19;7358360;19;20002;-64
2023/05/04 09:47:39;;;;;;;;;;;;;;;17.66;58.79;101025.63;7360481;19;19930;-65
2023/05/04 09:50:10;;;;;;;;;;;;;;;17.66;58.73;101026.47;7358941;19;20232;-65
2023/05/04 09:52:39;;;;;;;;;;;;;;;17.61;59.04;101028.88;7358546;19;20460;-65
2023/05/04 09:55:06;;;;;;;;;;;;;;;17.64;58.68;101041.78;7358251;19;19940;-69
2023/05/04 09:57:35;;;;;;;;;;;;;;;17.71;58.80;101040.00;7361039;19;20257;-65
2023/05/04 10:00:04;;;;;;;;;;;;;;;17.74;58.55;101028.97;7358024;19;19914;-66
2023/05/04 10:02:36;;;;;;;;;;;;;;;17.83;58.38;101022.47;7357166;19;19929;-65
2023/05/04 10:05:05;;;;;;;;;;;;;;;17.76;58.08;101026.94;7358534;19;19925;-66
2023/05/04 10:07:33;;;;;;;;;;;;;;;17.83;58.25;101013.66;7360367;19;19915;-66
2023/05/04 10:10:00;;;;;;;;;;;;;;;17.83;57.79;101011.81;7359050;19;20357;-66
2023/05/04 10:12:27;;;;;;;;;;;;;;;17.88;57.83;101012.06;7360429;19;20236;-65
2023/05/04 10:14:55;;;;;;;;;;;;;;;18.03;57.75;101000.47;7358821;19;19919;-64
2023/05/04 10:17:29;;;;;;;;;;;;;;;18.14;57.17;101003.38;7359933;19;19923;-64
2023/05/04 10:19:57;;;;;;;;;;;;;;;18.15;56.45;100999.72;7356541;19;19927;-64
2023/05/04 10:22:27;;;;;;;;;;;;;;;18.19;56.12;100994.78;7357237;19;21704;-65
2023/05/04 10:25:04;;;;;;;;;;;;;;;18.24;55.69;100992.34;7358434;19;19919;-65
2023/05/04 10:27:38;;;;;;;;;;;;;;;18.28;55.91;100982.97;7357325;19;19929;-64
2023/05/04 10:30:07;;;;;;;;;;;;;;;18.30;55.49;100975.59;7355201;19;21218;-65
2023/05/04 10:32:38;;;;;;;;;;;;;;;18.35;55.28;100967.81;7357031;19;20390;-65
2023/05/04 10:35:06;;;;;;;;;;;;;;;18.43;55.61;100959.66;7358557;19;19919;-65
2023/05/04 10:37:36;;;;;;;;;;;;;;;18.51;54.95;100959.47;7356918;19;19923;-67
2023/05/04 10:40:13;;;;;;;;;;;;;;;18.50;54.74;100963.13;7357116;19;19922;-66
2023/05/04 10:42:42;;;;;;;;;;;;;;;18.50;54.81;100957.81;7355234;19;19926;-66
2023/05/04 10:45:09;;;;;;;;;;;;;;;18.48;55.09;100956.38;7356389;19;19949;-66
2023/05/04 10:47:39;;;;;;;;;;;;;;;18.49;55.27;100963.38;7356750;19;20370;-66
2023/05/04 10:50:25;;;;;;;;;;;;;;;18.54;55.13;100960.94;7358783;19;19981;-66
2023/05/04 10:53:03;;;;;;;;;;;;;;;18.54;54.81;100947.63;7356287;19;19915;-66
2023/05/04 10:55:37;;;;;;;;;;;;;;;18.58;54.67;100944.34;7354991;19;19915;-66
2023/05/04 10:58:05;;;;;;;;;;;;;;;18.62;54.05;100939.44;7355517;19;20797;-66
2023/05/04 11:00:40;;;;;;;;;;;;;;;18.61;53.84;100935.94;7355732;19;19921;-68
2023/05/04 11:03:10;;;;;;;;;;;;;;;18.67;53.82;100928.97;7354956;19;20361;-66
2023/05/04 11:05:42;;;;;;;;;;;;;;;18.72;53.98;100932.69;7358242;19;19919;-65
2023/05/04 11:08:18;;;;;;;;;;;;;;;18.69;53.30;100933.06;7357838;19;20372;-66
2023/05/04 11:10:46;;;;;;;;;;;;;;;18.73;53.35;100944.16;7358254;19;19998;-66
2023/05/04 11:13:15;;;;;;;;;;;;;;;18.73;52.93;100941.50;7356220;19;19914;-65
2023/05/04 11:15:44;;;;;;;;;;;;;;;18.73;52.97;100950.31;7352726;19;19918;-66
2023/05/04 11:18:11;;;;;;;;;;;;;;;18.72;53.27;100938.00;7353110;19;20369;-65
2023/05/04 11:20:39;;;;;;;;;;;;;;;18.72;53.68;100937.19;7357831;19;20189;-66
2023/05/04 11:23:09;;;;;;;;;;;;;;;18.65;53.27;100939.84;7357990;19;19918;-65
2023/05/04 11:25:36;;;;;;;;;;;;;;;18.65;53.35;100929.16;7356889;19;20395;-65
2023/05/04 11:28:04;;;;;;;;;;;;;;;18.68;53.84;100922.63;7355931;19;19948;-65
2023/05/04 11:30:32;;;;;;;;;;;;;;;18.72;53.43;100906.00;7355131;19;19914;-66
2023/05/04 11:33:01;;;;;;;;;;;;;;;18.76;53.29;100904.56;7355846;19;19945;-65
2023/05/04 11:35:28;;;;;;;;;;;;;;;18.80;53.18;100894.31;7364095;19;20018;-67
2023/05/04 11:37:56;;;;;;;;;;;;;;;18.80;52.85;100886.31;7363234;19;19934;-65
2023/05/04 11:40:24;;;;;;;;;;;;;;;18.84;52.62;100876.91;7361168;19;19927;-66
2023/05/04 11:42:52;;;;;;;;;;;;;;;18.92;52.25;100879.34;7362201;19;20367;-65
2023/05/04 11:45:23;;;;;;;;;;;;;;;19.00;51.53;100894.31;7360028;19;19922;-66
2023/05/04 11:47:51;;;;;;;;;;;;;;;19.03;50.79;100875.25;7359277;19;19936;-66
2023/05/04 11:50:19;;;;;;;;;;;;;;;18.99;50.64;100879.34;7361113;19;20353;-66
2023/05/04 11:52:47;;;;;;;;;;;;;;;18.94;50.89;100890.66;7363162;19;19919;-67
2023/05/04 11:55:24;;;;;;;;;;;;;;;18.90;51.09;100900.06;7361712;19;19918;-66
2023/05/04 11:57:59;;;;;;;;;;;;;;;18.91;50.99;100885.69;7363817;19;19926;-66
2023/05/04 12:00:34;;;;;;;;;;;;;;;18.93;51.32;100869.50;7361864;19;19956;-66
2023/05/04 12:03:02;;;;;;;;;;;;;;;18.96;51.01;100867.22;7360480;19;20539;-65
2023/05/04 12:05:30;;;;;;;;;;;;;;;19.03;51.48;100862.72;7365049;19;19926;-66
2023/05/04 12:07:57;;;;;;;;;;;;;;;19.15;51.76;100850.38;7364164;19;19919;-66
2023/05/04 12:10:25;;;;;;;;;;;;;;;19.33;51.49;100844.41;7362239;19;20993;-66
2023/05/04 12:12:53;;;;;;;;;;;;;;;19.48;50.64;100846.84;7363772;19;19949;-68
2023/05/04 12:15:28;;;;;;;;;;;;;;;19.48;49.90;100853.00;7364209;19;20403;-70
2023/05/04 12:17:56;;;;;;;;;;;;;;;19.42;50.39;100858.31;7359814;19;20568;-66
2023/05/04 12:20:27;;;;;;;;;;;;;;;19.34;50.09;100834.53;7360771;19;21243;-66
2023/05/04 12:22:55;;;;;;;;;;;;;;;19.22;50.53;100813.84;7361840;19;20190;-65
2023/05/04 12:25:22;;;;;;;;;;;;;;;19.14;51.34;100805.25;7359880;19;20238;-65
2023/05/04 12:27:50;;;;;;;;;;;;;;;19.09;51.14;100808.56;7364025;19;19936;-65
2023/05/04 12:30:17;;;;;;;;;;;;;;;19.09;51.21;100829.88;7362528;19;20377;-67
2023/05/04 12:32:44;;;;;;;;;;;;;;;19.12;50.35;100829.47;7360358;19;19923;-66
2023/05/04 12:35:11;;;;;;;;;;;;;;;19.09;50.70;100843.22;7362242;19;19927;-65
2023/05/04 12:37:39;;;;;;;;;;;;;;;19.15;50.58;100849.56;7362029;19;19925;-65
2023/05/04 12:40:06;;;;;;;;;;;;;;;19.28;50.23;100851.38;7363147;19;19959;-67